Time;durP1;ratioP1;P1;durP2;ratioP2;P2;SDS_P1;SDS_P2;PMS_P1;PMS_P2;Temp;Humidity;BMP_temperature;BMP_pressure;BME280_temperature;BME280_humidity;BME280_pressure;Samples;Min_cycle;Max_cycle;Signal;HPM_P1;HPM_P2
2023/09/04 00:00:03;;;;;;;15.70;10.05;;;13.50;99.90;;;;;;4738620;30;20052;-74
2023/09/04 00:02:28;;;;;;;16.15;10.23;;;13.40;99.90;;;;;;4738938;30;20048;-74
2023/09/04 00:04:55;;;;;;;15.75;10.45;;;13.50;99.90;;;;;;4738872;30;20390;-74
2023/09/04 00:07:20;;;;;;;17.00;11.38;;;13.40;99.90;;;;;;4738155;30;20083;-74
2023/09/04 00:09:46;;;;;;;16.27;10.73;;;13.40;99.90;;;;;;4738643;30;20413;-74
2023/09/04 00:12:11;;;;;;;15.15;10.25;;;13.40;99.90;;;;;;4738709;30;20113;-74
2023/09/04 00:14:37;;;;;;;17.77;10.32;;;13.30;99.90;;;;;;4754505;30;20044;-74
2023/09/04 00:17:03;;;;;;;16.80;10.07;;;13.30;99.90;;;;;;4754479;30;20082;-74
2023/09/04 00:19:29;;;;;;;15.07;10.45;;;13.30;99.90;;;;;;4754474;30;20056;-74
2023/09/04 00:21:54;;;;;;;15.32;10.27;;;13.30;99.90;;;;;;4754321;30;20052;-74
2023/09/04 00:24:22;;;;;;;14.50;9.85;;;13.30;99.90;;;;;;4738484;30;20055;-74
2023/09/04 00:26:47;;;;;;;18.02;10.65;;;13.30;99.90;;;;;;4738154;30;20056;-74
2023/09/04 00:29:13;;;;;;;16.95;11.20;;;13.20;99.90;;;;;;4738259;30;20063;-74
2023/09/04 00:31:39;;;;;;;19.08;11.90;;;13.20;99.90;;;;;;4738477;30;20060;-74
2023/09/04 00:34:04;;;;;;;16.58;10.65;;;13.20;99.90;;;;;;4738450;30;20060;-74
2023/09/04 00:36:30;;;;;;;18.15;10.90;;;13.20;99.90;;;;;;4737390;30;20052;-74
2023/09/04 00:38:55;;;;;;;21.75;12.57;;;13.20;99.90;;;;;;4737951;30;20052;-74
2023/09/04 00:41:21;;;;;;;23.40;13.48;;;13.20;99.90;;;;;;4754101;30;20048;-74
2023/09/04 00:43:47;;;;;;;22.80;14.98;;;13.30;99.90;;;;;;4738192;30;20062;-74
2023/09/04 00:46:13;;;;;;;22.83;13.90;;;13.30;99.90;;;;;;4737986;30;20056;-74
2023/09/04 00:48:39;;;;;;;21.00;13.63;;;13.50;99.90;;;;;;4737920;30;20052;-74
2023/09/04 00:51:05;;;;;;;21.88;14.00;;;13.40;99.90;;;;;;4753837;30;20441;-74
2023/09/04 00:53:32;;;;;;;22.98;14.55;;;13.40;99.90;;;;;;4738141;30;20493;-75
2023/09/04 00:56:00;;;;;;;23.00;14.30;;;13.50;99.90;;;;;;4737952;30;20056;-74
2023/09/04 00:58:29;;;;;;;22.40;13.93;;;13.50;99.90;;;;;;4752557;30;20127;-74
2023/09/04 01:00:55;;;;;;;21.15;13.48;;;13.50;99.90;;;;;;4752677;30;20067;-74
2023/09/04 01:03:21;;;;;;;21.95;13.48;;;13.50;99.90;;;;;;4752731;30;20052;-74
2023/09/04 01:05:47;;;;;;;24.88;15.20;;;13.50;99.90;;;;;;4752479;30;20114;-74
2023/09/04 01:08:14;;;;;;;23.17;15.25;;;13.50;99.90;;;;;;4752354;30;20052;-74
2023/09/04 01:10:51;;;;;;;26.98;16.20;;;13.50;99.90;;;;;;4752201;30;20421;-74
2023/09/04 01:13:29;;;;;;;28.27;17.33;;;13.50;99.90;;;;;;4752500;30;20060;-74
2023/09/04 01:15:56;;;;;;;27.48;16.75;;;13.60;99.90;;;;;;4752297;30;20056;-74
2023/09/04 01:18:23;;;;;;;25.15;14.82;;;13.60;99.90;;;;;;4752392;30;20129;-74
2023/09/04 01:21:09;;;;;;;27.35;16.60;;;13.60;99.90;;;;;;4753244;30;20499;-74
2023/09/04 01:23:34;;;;;;;25.30;14.75;;;13.60;99.90;;;;;;4753580;30;20090;-74
2023/09/04 01:26:13;;;;;;;23.08;15.02;;;13.70;99.90;;;;;;4752081;30;20139;-74
2023/09/04 01:29:02;;;;;;;25.80;14.90;;;13.60;99.90;;;;;;4753282;30;20074;-74
2023/09/04 01:31:50;;;;;;;25.48;15.85;;;13.70;99.90;;;;;;4752209;30;20143;-74
2023/09/04 01:34:24;;;;;;;28.52;17.38;;;13.70;99.90;;;;;;4752034;30;20044;-74
2023/09/04 01:36:52;;;;;;;33.15;18.40;;;13.80;99.90;;;;;;4752025;30;20467;-74
2023/09/04 01:39:20;;;;;;;29.70;17.88;;;13.90;99.90;;;;;;4753140;30;20540;-75
2023/09/04 01:41:46;;;;;;;26.67;16.52;;;13.90;99.90;;;;;;4753198;30;20056;-74
2023/09/04 01:44:13;;;;;;;26.90;16.50;;;13.90;99.90;;;;;;4752059;30;20063;-75
2023/09/04 01:46:38;;;;;;;26.00;15.98;;;13.80;99.90;;;;;;4751791;30;20505;-74
2023/09/04 01:49:04;;;;;;;23.90;15.00;;;13.80;99.90;;;;;;4752041;30;20060;-74
2023/09/04 01:51:30;;;;;;;27.00;14.80;;;13.80;99.90;;;;;;4752063;30;20544;-74
2023/09/04 01:53:55;;;;;;;23.52;14.48;;;13.80;99.90;;;;;;4751654;30;20416;-74
2023/09/04 01:56:22;;;;;;;22.58;13.00;;;13.80;99.90;;;;;;4751417;30;20068;-74
2023/09/04 01:58:48;;;;;;;22.40;13.10;;;13.70;99.90;;;;;;4752984;30;20101;-75
2023/09/04 02:01:14;;;;;;;21.98;14.35;;;13.70;99.90;;;;;;4736964;30;20056;-74
2023/09/04 02:03:40;;;;;;;23.77;14.50;;;13.70;99.90;;;;;;4736827;30;20056;-74
2023/09/04 02:06:06;;;;;;;22.48;12.68;;;13.70;99.90;;;;;;4737335;30;20067;-74
2023/09/04 02:08:32;;;;;;;19.95;12.55;;;13.60;99.90;;;;;;4737013;30;20067;-74
2023/09/04 02:10:58;;;;;;;25.40;14.75;;;13.60;99.90;;;;;;4737054;30;20052;-75
2023/09/04 02:13:24;;;;;;;23.10;14.95;;;13.60;99.90;;;;;;4737133;30;20052;-74
2023/09/04 02:15:50;;;;;;;21.63;13.30;;;13.60;99.90;;;;;;4736907;30;20177;-74
2023/09/04 02:18:16;;;;;;;22.60;14.57;;;13.60;99.90;;;;;;4736921;30;20056;-74
2023/09/04 02:20:41;;;;;;;22.88;14.68;;;13.60;99.90;;;;;;4736866;30;20067;-74
2023/09/04 02:23:07;;;;;;;22.50;15.52;;;13.60;99.90;;;;;;4736718;30;20481;-75
2023/09/04 02:25:32;;;;;;;20.20;13.27;;;13.60;99.90;;;;;;4736749;30;20048;-74
2023/09/04 02:27:58;;;;;;;22.60;14.80;;;13.60;99.90;;;;;;4752694;30;20044;-74
2023/09/04 02:30:24;;;;;;;23.15;15.13;;;13.60;99.90;;;;;;4738192;30;20052;-74
2023/09/04 02:32:50;;;;;;;26.25;16.20;;;13.60;99.90;;;;;;4756323;30;20052;-74
2023/09/04 02:35:16;;;;;;;24.60;16.15;;;13.60;99.90;;;;;;4756082;30;20052;-74
2023/09/04 02:37:43;;;;;;;26.27;16.92;;;13.60;99.90;;;;;;4740208;30;20063;-74
2023/09/04 02:40:09;;;;;;;27.85;17.05;;;13.70;99.90;;;;;;4739986;30;20498;-75
2023/09/04 02:42:35;;;;;;;26.90;16.75;;;13.70;99.90;;;;;;4756257;30;20056;-74
2023/09/04 02:45:01;;;;;;;30.85;18.48;;;13.70;99.90;;;;;;4740003;30;20144;-74
2023/09/04 02:47:26;;;;;;;29.60;18.55;;;13.70;99.90;;;;;;4739973;30;20481;-75
2023/09/04 02:49:52;;;;;;;26.67;16.95;;;13.70;99.90;;;;;;4740025;30;20048;-74
2023/09/04 02:52:17;;;;;;;31.40;19.83;;;13.70;99.90;;;;;;4740057;30;20056;-74
2023/09/04 02:54:43;;;;;;;31.30;19.50;;;13.70;99.90;;;;;;4756204;30;20132;-75
2023/09/04 02:57:10;;;;;;;30.55;19.23;;;13.70;99.90;;;;;;4739625;30;20076;-74
2023/09/04 02:59:36;;;;;;;32.88;18.80;;;13.70;99.90;;;;;;4739613;30;20417;-74
2023/09/04 03:02:02;;;;;;;30.85;18.73;;;13.70;99.90;;;;;;4739732;30;20528;-74
2023/09/04 03:04:28;;;;;;;28.45;18.25;;;13.70;99.90;;;;;;4739800;30;20056;-75
2023/09/04 03:06:54;;;;;;;30.23;18.88;;;13.70;99.90;;;;;;4739685;30;20106;-74
2023/09/04 03:09:20;;;;;;;31.85;19.85;;;13.70;99.90;;;;;;4739825;30;20060;-74
2023/09/04 03:11:48;;;;;;;28.38;18.05;;;13.70;99.90;;;;;;4739812;30;20577;-74
2023/09/04 03:14:15;;;;;;;27.73;17.67;;;13.60;99.90;;;;;;4739777;30;20094;-74
2023/09/04 03:16:41;;;;;;;28.50;16.33;;;13.60;99.90;;;;;;4739746;30;20532;-74
2023/09/04 03:19:06;;;;;;;26.95;18.05;;;13.60;99.90;;;;;;4755419;30;20135;-74
2023/09/04 03:21:32;;;;;;;27.88;18.00;;;13.50;99.90;;;;;;4739201;30;20052;-75
2023/09/04 03:23:58;;;;;;;29.20;18.05;;;13.50;99.90;;;;;;4755431;30;20130;-74
2023/09/04 03:26:23;;;;;;;25.42;17.25;;;13.50;99.90;;;;;;4739579;30;20048;-74
2023/09/04 03:28:49;;;;;;;31.25;19.63;;;13.50;99.90;;;;;;4739249;30;20071;-75
2023/09/04 03:31:15;;;;;;;30.17;18.50;;;13.50;99.90;;;;;;4739651;30;20048;-75
2023/09/04 03:33:41;;;;;;;28.73;18.63;;;13.50;99.90;;;;;;4739290;30;20055;-75
2023/09/04 03:36:07;;;;;;;31.35;19.20;;;13.50;99.90;;;;;;4739464;30;20077;-75
2023/09/04 03:38:32;;;;;;;30.00;19.15;;;13.50;99.90;;;;;;4739115;30;20040;-75
2023/09/04 03:40:58;;;;;;;27.33;18.50;;;13.50;99.90;;;;;;4738959;30;20059;-75
2023/09/04 03:43:24;;;;;;;31.98;19.10;;;13.50;99.90;;;;;;4738388;30;20055;-75
2023/09/04 03:45:52;;;;;;;29.17;18.73;;;13.50;99.90;;;;;;4739269;30;20075;-75
2023/09/04 03:48:18;;;;;;;28.23;17.67;;;13.50;99.90;;;;;;4738939;30;20405;-74
2023/09/04 03:50:43;;;;;;;29.27;18.38;;;13.50;99.90;;;;;;4738824;30;20083;-74
2023/09/04 03:53:09;;;;;;;24.88;16.42;;;13.50;99.90;;;;;;4738909;30;20139;-75
2023/09/04 03:55:34;;;;;;;27.70;16.33;;;13.50;99.90;;;;;;4738910;30;20105;-75
2023/09/04 03:58:10;;;;;;;28.65;16.65;;;13.40;99.90;;;;;;4738823;30;20060;-74
2023/09/04 04:00:35;;;;;;;24.00;16.30;;;13.40;99.90;;;;;;4738893;30;20105;-74
2023/09/04 04:03:01;;;;;;;25.92;15.65;;;13.30;99.90;;;;;;4738834;30;20444;-75
2023/09/04 04:05:27;;;;;;;22.02;15.10;;;13.30;99.90;;;;;;4738579;30;20084;-74
2023/09/04 04:07:53;;;;;;;21.50;15.18;;;13.30;99.90;;;;;;4737429;30;20060;-75
2023/09/04 04:10:22;;;;;;;22.00;14.75;;;13.20;99.90;;;;;;4738538;30;20056;-75
2023/09/04 04:12:52;;;;;;;22.52;14.98;;;13.20;99.90;;;;;;4738601;30;20055;-75
2023/09/04 04:15:18;;;;;;;19.42;13.90;;;13.10;99.90;;;;;;4738658;30;20083;-75
2023/09/04 04:17:43;;;;;;;20.70;14.57;;;13.10;99.90;;;;;;4738462;30;20048;-75
2023/09/04 04:20:11;;;;;;;20.45;14.52;;;13.10;99.90;;;;;;4738646;30;20059;-75
2023/09/04 04:22:39;;;;;;;20.15;13.95;;;13.10;99.90;;;;;;4754165;30;20059;-75
2023/09/04 04:25:05;;;;;;;22.52;13.95;;;13.10;99.90;;;;;;4754275;30;20060;-75
2023/09/04 04:27:31;;;;;;;19.95;13.43;;;13.10;99.90;;;;;;4738406;30;20139;-74
2023/09/04 04:29:56;;;;;;;19.45;13.52;;;13.00;99.90;;;;;;4738429;30;20131;-75
2023/09/04 04:32:22;;;;;;;21.52;13.57;;;13.00;99.90;;;;;;4738221;30;20183;-74
2023/09/04 04:34:48;;;;;;;16.77;12.85;;;13.00;99.90;;;;;;4738087;30;20052;-74
2023/09/04 04:37:14;;;;;;;17.88;13.02;;;13.00;99.90;;;;;;4737363;30;20056;-74
2023/09/04 04:39:39;;;;;;;16.25;11.77;;;13.00;99.90;;;;;;4738105;30;20060;-74
2023/09/04 04:42:05;;;;;;;16.63;12.00;;;13.00;99.90;;;;;;4737904;30;20110;-74
2023/09/04 04:44:31;;;;;;;16.98;12.32;;;13.00;99.90;;;;;;4737773;30;20059;-74
2023/09/04 04:46:56;;;;;;;16.08;12.25;;;13.00;99.90;;;;;;4737722;30;20132;-74
2023/09/04 04:49:23;;;;;;;16.80;12.05;;;13.00;99.90;;;;;;4738035;30;20087;-74
2023/09/04 04:51:54;;;;;;;15.52;11.38;;;13.00;99.90;;;;;;4737948;30;20052;-74
2023/09/04 04:54:20;;;;;;;15.88;11.45;;;13.00;99.90;;;;;;4737463;30;20064;-74
2023/09/04 04:56:48;;;;;;;16.38;12.27;;;13.00;99.90;;;;;;4737690;30;20059;-74
2023/09/04 04:59:14;;;;;;;18.13;12.43;;;13.00;99.90;;;;;;4737801;30;20139;-74
2023/09/04 05:01:39;;;;;;;16.65;11.52;;;13.10;99.90;;;;;;4753267;30;20527;-74
2023/09/04 05:04:05;;;;;;;17.80;13.00;;;13.00;99.90;;;;;;4737538;30;20056;-74
2023/09/04 05:06:31;;;;;;;17.13;13.57;;;13.10;99.90;;;;;;4737553;30;20079;-74
2023/09/04 05:08:57;;;;;;;16.63;12.35;;;13.10;99.90;;;;;;4737356;30;20059;-74
2023/09/04 05:11:22;;;;;;;17.08;12.55;;;13.10;99.90;;;;;;4737766;30;20056;-74
2023/09/04 05:13:48;;;;;;;15.65;11.40;;;13.10;99.90;;;;;;4737326;30;20082;-74
2023/09/04 05:16:14;;;;;;;15.38;11.88;;;13.10;99.90;;;;;;4737527;30;20110;-74
2023/09/04 05:18:39;;;;;;;19.75;13.27;;;13.10;99.90;;;;;;4737605;30;20143;-74
2023/09/04 05:21:06;;;;;;;16.27;12.20;;;13.20;99.90;;;;;;4753452;30;20056;-74
2023/09/04 05:23:38;;;;;;;20.80;13.02;;;13.20;99.90;;;;;;4737544;30;20048;-74
2023/09/04 05:26:04;;;;;;;17.67;12.13;;;13.20;99.90;;;;;;4737452;30;20055;-74
2023/09/04 05:28:29;;;;;;;14.85;11.45;;;13.20;99.90;;;;;;4737359;30;20333;-74
2023/09/04 05:31:04;;;;;;;17.58;12.52;;;13.20;99.90;;;;;;4737179;30;20052;-74
2023/09/04 05:33:30;;;;;;;16.73;12.35;;;13.30;99.90;;;;;;4737429;30;20063;-74
2023/09/04 05:35:56;;;;;;;19.42;12.25;;;13.30;99.90;;;;;;4737335;30;20058;-74
2023/09/04 05:38:22;;;;;;;17.85;12.10;;;13.40;99.90;;;;;;4753239;30;20083;-74
2023/09/04 05:40:49;;;;;;;17.63;12.43;;;13.40;99.90;;;;;;4737296;30;20044;-74
2023/09/04 05:43:15;;;;;;;14.80;11.63;;;13.40;99.90;;;;;;4736973;30;20048;-74
2023/09/04 05:45:41;;;;;;;20.15;12.52;;;13.50;99.90;;;;;;4737267;30;20114;-74
2023/09/04 05:48:06;;;;;;;17.63;12.25;;;13.50;99.90;;;;;;4737100;30;20055;-74
2023/09/04 05:50:32;;;;;;;17.83;12.27;;;13.60;99.90;;;;;;4737210;30;20133;-74
2023/09/04 05:52:58;;;;;;;18.73;12.90;;;13.70;99.90;;;;;;4736996;30;20048;-74
2023/09/04 05:55:26;;;;;;;19.13;12.13;;;13.70;99.90;;;;;;4736956;30;20124;-74
2023/09/04 05:57:53;;;;;;;16.58;11.75;;;13.80;99.90;;;;;;4736812;30;20072;-74
2023/09/04 06:00:21;;;;;;;19.08;13.02;;;13.90;99.90;;;;;;4736836;30;20095;-74
2023/09/04 06:02:46;;;;;;;20.25;12.93;;;14.00;99.90;;;;;;4737057;30;20048;-74
2023/09/04 06:05:12;;;;;;;20.58;12.55;;;14.10;99.90;;;;;;4736580;30;20508;-74
2023/09/04 06:07:38;;;;;;;20.45;12.98;;;14.20;99.90;;;;;;4736840;30;20489;-74
2023/09/04 06:10:04;;;;;;;18.05;13.07;;;14.30;99.90;;;;;;4736651;30;20128;-74
2023/09/04 06:12:30;;;;;;;16.95;11.85;;;14.30;99.90;;;;;;4736766;30;20056;-74
2023/09/04 06:14:55;;;;;;;16.60;11.38;;;14.40;99.90;;;;;;4736695;30;20557;-74
2023/09/04 06:17:21;;;;;;;18.08;12.00;;;14.50;99.90;;;;;;4736874;30;20097;-75
2023/09/04 06:19:46;;;;;;;16.55;11.88;;;14.60;99.90;;;;;;4736953;30;20052;-74
2023/09/04 06:22:12;;;;;;;14.80;11.07;;;14.60;99.90;;;;;;4736754;30;20413;-74
2023/09/04 06:24:38;;;;;;;16.98;12.35;;;14.70;99.90;;;;;;4752594;30;20100;-76
2023/09/04 06:27:04;;;;;;;16.83;11.95;;;14.80;99.90;;;;;;4736608;30;20144;-74
2023/09/04 06:29:30;;;;;;;17.52;11.82;;;14.80;99.90;;;;;;4752698;30;20080;-74
2023/09/04 06:31:55;;;;;;;17.95;11.93;;;14.90;99.90;;;;;;4736805;30;20084;-74
2023/09/04 06:34:21;;;;;;;17.90;11.43;;;15.00;99.90;;;;;;4736767;30;20052;-74
2023/09/04 06:36:47;;;;;;;16.83;11.10;;;15.10;99.90;;;;;;4736490;30;20052;-74
2023/09/04 06:39:12;;;;;;;14.00;10.20;;;15.20;99.90;;;;;;4736805;30;20059;-74
2023/09/04 06:41:38;;;;;;;17.13;11.07;;;15.30;99.90;;;;;;4736732;30;20609;-74
2023/09/04 06:44:04;;;;;;;16.17;11.13;;;15.40;99.90;;;;;;4736725;30;20520;-74
2023/09/04 06:46:29;;;;;;;12.88;9.65;;;15.50;99.90;;;;;;4736677;30;20105;-74
2023/09/04 06:48:55;;;;;;;14.98;11.25;;;15.70;99.90;;;;;;4736246;30;20147;-74
2023/09/04 06:51:21;;;;;;;18.20;10.05;;;15.80;99.90;;;;;;4736633;30;20051;-74
2023/09/04 06:53:46;;;;;;;13.70;9.43;;;15.90;99.90;;;;;;4736529;30;20060;-73
2023/09/04 06:56:12;;;;;;;13.75;10.82;;;16.00;99.90;;;;;;4736170;30;20497;-74
2023/09/04 06:58:38;;;;;;;17.52;10.32;;;16.10;99.90;;;;;;4736382;30;20060;-74
2023/09/04 07:01:07;;;;;;;15.48;10.10;;;16.20;99.90;;;;;;4736624;30;20091;-74
2023/09/04 07:03:33;;;;;;;15.00;10.07;;;16.20;99.90;;;;;;4736384;30;20123;-74
2023/09/04 07:05:59;;;;;;;15.80;10.65;;;16.30;99.90;;;;;;4736439;30;20161;-73
2023/09/04 07:08:25;;;;;;;16.58;11.23;;;16.50;99.90;;;;;;4736094;30;20485;-73
2023/09/04 07:10:51;;;;;;;15.18;10.55;;;16.50;99.90;;;;;;4736568;30;20095;-74
2023/09/04 07:13:18;;;;;;;13.98;10.35;;;16.50;99.90;;;;;;4752364;30;20075;-74
2023/09/04 07:15:44;;;;;;;19.42;11.43;;;16.60;99.90;;;;;;4730658;30;20124;-73
2023/09/04 07:18:10;;;;;;;13.95;10.30;;;16.70;99.90;;;;;;4745261;30;20532;-73
2023/09/04 07:20:36;;;;;;;14.60;10.38;;;16.80;99.90;;;;;;4721685;30;20486;-73
2023/09/04 07:23:04;;;;;;;13.80;10.38;;;16.90;99.90;;;;;;4721542;30;20502;-73
2023/09/04 07:25:31;;;;;;;14.07;10.27;;;17.00;99.90;;;;;;4721776;30;20059;-73
2023/09/04 07:28:00;;;;;;;15.48;10.30;;;17.00;99.90;;;;;;4721641;30;20048;-73
2023/09/04 07:30:25;;;;;;;17.27;9.38;;;17.10;99.90;;;;;;4721724;30;20056;-75
2023/09/04 07:32:51;;;;;;;13.45;9.15;;;17.20;99.90;;;;;;4721604;30;20464;-74
2023/09/04 07:35:17;;;;;;;13.57;8.70;;;17.30;99.90;;;;;;4721821;30;20076;-76
2023/09/04 07:37:44;;;;;;;15.50;10.45;;;17.40;99.90;;;;;;4810361;24;20056;-73
2023/09/04 07:40:10;;;;;;;12.63;9.15;;;17.50;99.90;;;;;;4738927;30;20110;-73
2023/09/04 07:42:36;;;;;;;15.73;9.00;;;17.60;99.90;;;;;;4738961;30;20412;-73
2023/09/04 07:45:02;;;;;;;13.68;9.88;;;17.60;99.90;;;;;;4755006;30;20055;-73
2023/09/04 07:47:28;;;;;;;12.82;9.40;;;17.80;99.90;;;;;;4738970;30;20056;-72
2023/09/04 07:49:55;;;;;;;13.50;9.13;;;17.90;99.90;;;;;;4739127;30;20071;-73
2023/09/04 07:52:21;;;;;;;15.20;9.70;;;17.90;99.90;;;;;;4738891;30;20499;-74
2023/09/04 07:54:48;;;;;;;12.20;9.27;;;18.00;99.90;;;;;;4754573;30;20394;-74
2023/09/04 07:57:14;;;;;;;11.30;9.43;;;18.10;99.90;;;;;;4738677;30;20052;-74
2023/09/04 07:59:40;;;;;;;13.57;9.70;;;18.20;99.90;;;;;;4738681;30;20049;-74
2023/09/04 08:02:06;;;;;;;13.00;9.30;;;18.20;99.90;;;;;;4738693;30;20089;-74
2023/09/04 08:04:31;;;;;;;12.40;8.50;;;18.30;99.90;;;;;;4737740;30;20125;-74
2023/09/04 08:06:57;;;;;;;11.52;8.40;;;18.30;99.90;;;;;;4738242;30;20063;-74
2023/09/04 08:09:25;;;;;;;11.77;8.60;;;18.30;99.90;;;;;;4738509;30;20390;-74
2023/09/04 08:11:51;;;;;;;11.45;8.20;;;18.50;99.90;;;;;;4738496;30;20102;-74
2023/09/04 08:14:17;;;;;;;13.25;8.48;;;18.60;99.90;;;;;;4738429;30;20067;-74
2023/09/04 08:16:42;;;;;;;11.73;9.60;;;18.60;99.90;;;;;;4738325;30;20048;-74
2023/09/04 08:19:08;;;;;;;13.05;9.70;;;18.70;99.90;;;;;;4738226;30;20106;-74
2023/09/04 08:21:36;;;;;;;14.07;8.85;;;18.80;99.90;;;;;;4753521;30;20080;-74
2023/09/04 08:24:08;;;;;;;13.32;9.25;;;18.80;99.90;;;;;;4754155;30;20060;-74
2023/09/04 08:26:36;;;;;;;12.23;8.13;;;18.90;99.90;;;;;;4738126;30;20044;-75
2023/09/04 08:29:02;;;;;;;9.63;6.80;;;19.00;99.90;;;;;;4737523;30;20102;-74
2023/09/04 08:31:30;;;;;;;12.00;6.90;;;19.10;99.90;;;;;;4738372;30;20060;-74
2023/09/04 08:33:56;;;;;;;9.35;6.25;;;19.20;99.90;;;;;;4753929;30;20044;-74
2023/09/04 08:36:21;;;;;;;10.75;6.60;;;19.40;99.90;;;;;;4738283;30;20056;-75
2023/09/04 08:38:49;;;;;;;10.35;7.07;;;19.40;99.90;;;;;;4737965;30;20118;-75
2023/09/04 08:41:19;;;;;;;8.90;6.90;;;19.50;99.90;;;;;;4738109;30;20505;-75
2023/09/04 08:43:47;;;;;;;13.02;6.47;;;19.50;99.90;;;;;;4737927;30;20127;-74
2023/09/04 08:46:15;;;;;;;8.73;6.50;;;19.60;99.90;;;;;;4737826;30;20060;-74
2023/09/04 08:48:43;;;;;;;8.00;6.03;;;19.70;99.90;;;;;;4737812;30;20452;-74
2023/09/04 08:51:12;;;;;;;11.30;7.10;;;19.80;99.90;;;;;;4737833;30;20055;-74
2023/09/04 08:53:38;;;;;;;7.75;6.15;;;19.80;99.90;;;;;;4738123;30;20047;-73
2023/09/04 08:56:04;;;;;;;8.07;6.00;;;19.90;99.90;;;;;;4753688;30;20099;-73
2023/09/04 08:58:30;;;;;;;11.70;6.45;;;20.00;99.90;;;;;;4753652;30;20093;-73
2023/09/04 09:00:56;;;;;;;6.88;4.97;;;20.10;99.90;;;;;;4737428;30;20059;-73
2023/09/04 09:03:22;;;;;;;6.60;5.43;;;20.10;99.90;;;;;;4737565;30;20059;-73
2023/09/04 09:05:48;;;;;;;9.85;5.32;;;20.10;99.90;;;;;;4753564;30;20052;-73
2023/09/04 09:08:18;;;;;;;8.55;4.30;;;20.20;99.90;;;;;;4737440;30;20056;-73
2023/09/04 09:10:46;;;;;;;5.32;3.95;;;20.30;99.90;;;;;;4737720;30;20139;-74
2023/09/04 09:13:18;;;;;;;8.52;5.10;;;20.40;99.90;;;;;;4737365;30;20062;-74
2023/09/04 09:15:44;;;;;;;9.70;4.75;;;20.40;99.90;;;;;;4737375;30;20059;-73
2023/09/04 09:18:09;;;;;;;10.07;4.70;;;20.50;99.90;;;;;;4737424;30;20060;-73
2023/09/04 09:20:39;;;;;;;8.15;5.50;;;20.50;99.90;;;;;;4753505;30;20072;-73
2023/09/04 09:23:05;;;;;;;7.65;4.93;;;20.50;99.90;;;;;;4737309;30;20147;-73
2023/09/04 09:25:34;;;;;;;9.57;4.72;;;20.60;99.90;;;;;;4753298;30;20052;-74
2023/09/04 09:28:02;;;;;;;7.40;4.35;;;20.70;99.90;;;;;;4737301;30;20067;-74
2023/09/04 09:30:39;;;;;;;8.43;5.43;;;20.80;99.90;;;;;;4737375;30;20425;-74
2023/09/04 09:33:13;;;;;;;8.65;6.72;;;20.80;99.90;;;;;;4737170;30;20060;-74
2023/09/04 09:35:42;;;;;;;11.13;5.70;;;20.90;99.90;;;;;;4737091;30;20481;-73
2023/09/04 09:38:11;;;;;;;8.52;5.40;;;20.90;99.90;;;;;;4752836;30;20505;-74
2023/09/04 09:40:37;;;;;;;7.63;4.38;;;21.00;99.90;;;;;;4751947;30;20135;-74
2023/09/04 09:43:09;;;;;;;9.18;7.50;;;21.10;99.90;;;;;;4737182;30;20135;-73
2023/09/04 09:45:35;;;;;;;6.43;4.30;;;21.10;99.90;;;;;;4737333;30;20059;-73
2023/09/04 09:48:07;;;;;;;5.82;4.30;;;21.20;99.90;;;;;;4736906;30;20063;-73
2023/09/04 09:50:37;;;;;;;7.50;5.78;;;21.20;99.90;;;;;;4736932;30;20119;-73
2023/09/04 09:53:04;;;;;;;7.63;4.55;;;21.20;99.90;;;;;;4737057;30;20060;-74
2023/09/04 09:55:31;;;;;;;8.73;4.68;;;21.30;99.90;;;;;;4736749;30;20134;-74
2023/09/04 09:57:58;;;;;;;10.65;4.70;;;21.40;99.90;;;;;;4753138;30;20060;-74
2023/09/04 10:00:25;;;;;;;8.15;4.93;;;21.50;99.90;;;;;;4752833;30;20113;-73
2023/09/04 10:02:54;;;;;;;6.88;4.15;;;21.40;99.90;;;;;;4737025;30;20129;-74
2023/09/04 10:05:23;;;;;;;10.02;5.13;;;21.50;99.90;;;;;;4737302;30;20496;-73
2023/09/04 10:07:58;;;;;;;7.30;4.75;;;21.70;99.90;;;;;;4737061;30;20139;-74
2023/09/04 10:10:24;;;;;;;5.68;3.88;;;21.60;99.90;;;;;;4736865;30;20063;-74
2023/09/04 10:13:02;;;;;;;8.30;4.97;;;21.80;99.90;;;;;;4736707;30;20052;-74
2023/09/04 10:15:32;;;;;;;7.95;5.25;;;21.90;99.90;;;;;;4736767;30;20059;-74
2023/09/04 10:18:00;;;;;;;8.32;5.38;;;21.90;99.90;;;;;;4736746;30;20087;-73
2023/09/04 10:20:27;;;;;;;7.03;5.03;;;21.90;99.90;;;;;;4736722;30;20052;-73
2023/09/04 10:23:02;;;;;;;7.13;5.32;;;21.90;99.90;;;;;;4752518;30;20127;-74
2023/09/04 10:25:38;;;;;;;8.07;4.65;;;21.80;99.90;;;;;;4736688;30;20105;-73
2023/09/04 10:28:12;;;;;;;6.20;4.50;;;21.80;99.90;;;;;;4736615;30;20051;-73
2023/09/04 10:30:41;;;;;;;5.82;4.10;;;22.00;99.90;;;;;;4752544;30;20109;-73
2023/09/04 10:33:08;;;;;;;7.88;3.58;;;22.10;99.90;;;;;;4736663;30;20055;-73
2023/09/04 10:35:34;;;;;;;6.97;3.78;;;22.30;99.90;;;;;;4736802;30;20095;-73
2023/09/04 10:38:02;;;;;;;13.95;3.97;;;22.40;99.90;;;;;;4736409;30;20105;-73
2023/09/04 10:40:28;;;;;;;5.40;3.60;;;22.50;99.90;;;;;;4736482;30;20095;-73
2023/09/04 10:42:56;;;;;;;8.55;5.28;;;22.50;99.90;;;;;;4752389;30;20048;-74
2023/09/04 10:45:22;;;;;;;6.35;4.05;;;22.60;99.90;;;;;;4736707;30;20064;-74
2023/09/04 10:47:51;;;;;;;6.53;4.03;;;22.60;99.90;;;;;;4736450;30;20073;-74
2023/09/04 10:50:27;;;;;;;6.20;4.03;;;22.70;99.90;;;;;;4736474;30;20497;-75
2023/09/04 10:52:57;;;;;;;5.57;3.28;;;22.80;99.90;;;;;;4739727;30;20059;-75
2023/09/04 10:55:26;;;;;;;7.18;3.50;;;22.90;99.90;;;;;;4755552;30;20052;-75
2023/09/04 10:58:12;;;;;;;5.45;3.17;;;22.90;99.90;;;;;;4755589;30;20040;-73
2023/09/04 11:00:39;;;;;;;7.15;3.80;;;23.00;99.90;;;;;;4755656;30;20099;-73
2023/09/04 11:03:21;;;;;;;4.75;3.15;;;23.10;99.90;;;;;;4739959;30;20123;-73
2023/09/04 11:06:03;;;;;;;6.50;3.13;;;23.20;99.90;;;;;;4739932;30;20059;-76
2023/09/04 11:08:32;;;;;;;7.72;3.60;;;23.30;99.90;;;;;;4739536;30;20059;-76
2023/09/04 11:11:02;;;;;;;6.28;3.90;;;23.20;99.90;;;;;;4739593;30;20055;-75
2023/09/04 11:13:28;;;;;;;4.97;3.05;;;23.20;99.90;;;;;;4739749;30;20064;-74
2023/09/04 11:15:57;;;;;;;7.57;3.15;;;23.20;99.90;;;;;;4739418;30;20059;-74
2023/09/04 11:18:29;;;;;;;5.15;3.63;;;23.30;99.90;;;;;;4755303;30;20119;-73
2023/09/04 11:20:55;;;;;;;7.60;4.63;;;23.30;99.90;;;;;;4755443;30;20049;-74
2023/09/04 11:23:24;;;;;;;5.05;3.33;;;23.30;99.90;;;;;;4739602;30;20135;-74
2023/09/04 11:25:52;;;;;;;5.50;3.72;;;23.50;99.90;;;;;;4739254;30;20052;-74
2023/09/04 11:28:22;;;;;;;6.03;3.63;;;23.50;99.90;;;;;;4739336;30;20071;-74
2023/09/04 11:30:51;;;;;;;5.50;3.20;;;23.50;99.90;;;;;;4739204;30;20056;-74
2023/09/04 11:33:16;;;;;;;4.05;2.85;;;23.30;99.90;;;;;;4739056;30;20497;-74
2023/09/04 11:36:03;;;;;;;7.25;2.90;;;23.30;99.90;;;;;;4739073;30;20052;-74
2023/09/04 11:38:31;;;;;;;6.57;3.08;;;23.40;99.90;;;;;;4754835;30;20087;-74
2023/09/04 11:40:57;;;;;;;4.95;3.13;;;23.40;99.90;;;;;;4755063;30;20532;-74
2023/09/04 11:43:24;;;;;;;5.28;2.88;;;23.50;99.90;;;;;;4739061;30;20064;-74
2023/09/04 11:45:57;;;;;;;6.13;3.17;;;23.50;99.90;;;;;;4738897;30;20395;-74
2023/09/04 11:48:24;;;;;;;5.95;3.65;;;23.50;99.90;;;;;;4738862;30;20067;-74
2023/09/04 11:50:51;;;;;;;4.32;3.45;;;23.70;99.90;;;;;;4739316;30;20048;-74
2023/09/04 11:53:17;;;;;;;5.22;3.15;;;23.80;99.90;;;;;;4739169;30;20072;-74
2023/09/04 11:55:43;;;;;;;6.85;3.33;;;23.80;99.90;;;;;;4738800;30;20059;-74
2023/09/04 11:58:09;;;;;;;6.50;3.33;;;23.90;99.90;;;;;;4738658;30;20056;-74
2023/09/04 12:00:34;;;;;;;4.30;3.30;;;24.00;99.90;;;;;;4754869;30;20043;-74
2023/09/04 12:03:00;;;;;;;11.07;6.85;;;24.10;99.90;;;;;;4754027;30;20393;-74
2023/09/04 12:05:26;;;;;;;6.28;4.10;;;24.10;99.90;;;;;;4754777;30;20058;-74
2023/09/04 12:07:53;;;;;;;6.63;4.47;;;24.00;99.90;;;;;;4738730;30;20053;-74
2023/09/04 12:10:18;;;;;;;8.90;5.28;;;24.00;99.90;;;;;;4738798;30;20457;-74
2023/09/04 12:12:44;;;;;;;7.35;5.18;;;23.90;99.90;;;;;;4738429;30;20123;-74
2023/09/04 12:15:10;;;;;;;7.22;5.63;;;23.80;99.90;;;;;;4754598;30;20044;-74
2023/09/04 12:17:36;;;;;;;5.03;3.65;;;23.80;99.90;;;;;;4738662;30;20435;-74
2023/09/04 12:20:08;;;;;;;5.30;3.72;;;23.90;99.90;;;;;;4738387;30;20059;-74
2023/09/04 12:22:33;;;;;;;6.90;3.88;;;23.90;99.90;;;;;;4738629;30;20071;-74
2023/09/04 12:25:03;;;;;;;6.55;4.00;;;24.00;99.90;;;;;;4738495;30;20048;-78
2023/09/04 12:27:37;;;;;;;4.68;3.40;;;24.10;99.90;;;;;;4754316;30;20088;-75
2023/09/04 12:30:05;;;;;;;6.53;4.68;;;24.20;99.90;;;;;;4738439;30;20052;-74
2023/09/04 12:32:33;;;;;;;5.25;3.65;;;24.20;99.90;;;;;;4754057;30;20056;-74